Time;durP1;ratioP1;P1;durP2;ratioP2;P2;SDS_P1;SDS_P2;PMS_P1;PMS_P2;Temp;Humidity;BMP_temperature;BMP_pressure;BME280_temperature;BME280_humidity;BME280_pressure;Samples;Min_cycle;Max_cycle;Signal;HPM_P1;HPM_P2
2022/02/19 00:00:50;;;;;;;5.50;1.70;;;;;;;26.68;29.84;96073.91;5012253;28;20585;-30
2022/02/19 00:03:15;;;;;;;7.97;1.50;;;;;;;26.67;29.59;96061.72;5015667;28;20136;-31
2022/02/19 00:05:40;;;;;;;8.30;1.80;;;;;;;26.66;29.59;96075.81;5014325;28;20033;-34
2022/02/19 00:08:06;;;;;;;4.75;1.88;;;;;;;26.64;29.70;96075.06;5013373;28;20026;-31
2022/02/19 00:10:32;;;;;;;5.53;1.70;;;;;;;26.63;29.76;96070.75;5012008;28;20388;-32
2022/02/19 00:12:58;;;;;;;4.97;1.90;;;;;;;26.63;29.68;96060.25;5014189;28;20899;-31
2022/02/19 00:15:25;;;;;;;7.93;1.73;;;;;;;26.62;29.61;96075.19;5014359;28;20029;-31
2022/02/19 00:17:50;;;;;;;4.82;2.25;;;;;;;26.63;29.66;96076.88;5013467;28;20567;-32
2022/02/19 00:20:16;;;;;;;5.85;2.05;;;;;;;26.64;29.53;96088.22;5013203;28;20045;-33
2022/02/19 00:22:41;;;;;;;6.43;1.88;;;;;;;26.64;29.70;96093.47;5013008;28;20026;-30
2022/02/19 00:25:08;;;;;;;4.78;1.63;;;;;;;26.64;29.54;96082.94;5011472;28;20051;-32
2022/02/19 00:27:34;;;;;;;3.22;1.52;;;;;;;26.63;29.64;96089.16;5013062;28;20263;-31
2022/02/19 00:29:59;;;;;;;4.95;1.70;;;;;;;26.64;29.55;96109.22;5011225;28;20055;-31
2022/02/19 00:32:25;;;;;;;4.82;1.70;;;;;;;26.64;29.50;96103.97;5014276;28;20029;-31
2022/02/19 00:34:51;;;;;;;3.88;1.50;;;;;;;26.63;29.40;96102.28;5013551;28;20033;-29
2022/02/19 00:37:16;;;;;;;4.43;2.10;;;;;;;26.63;29.39;96110.19;5011501;28;21674;-30
2022/02/19 00:39:42;;;;;;;4.32;1.60;;;;;;;26.63;29.44;96120.69;5012661;28;20041;-30
2022/02/19 00:42:07;;;;;;;10.63;1.77;;;;;;;26.61;29.31;96119.03;5013243;28;20029;-32
2022/02/19 00:44:33;;;;;;;3.60;1.80;;;;;;;26.61;29.36;96116.38;5014437;28;20076;-30
2022/02/19 00:46:59;;;;;;;7.35;1.90;;;;;;;26.61;29.41;96116.38;5012841;28;20040;-29
2022/02/19 00:49:24;;;;;;;6.60;1.85;;;;;;;26.61;29.36;96124.28;5013050;28;20030;-29
2022/02/19 00:51:50;;;;;;;5.85;1.67;;;;;;;26.61;29.19;96126.91;5013877;28;20125;-29
2022/02/19 00:54:15;;;;;;;7.05;2.00;;;;;;;26.60;29.23;96130.47;5012346;28;20021;-28
2022/02/19 00:56:41;;;;;;;4.10;1.85;;;;;;;26.60;29.17;96127.84;5015698;28;20055;-30
2022/02/19 00:59:06;;;;;;;5.90;1.90;;;;;;;26.59;29.30;96141.09;5012189;28;20025;-30
2022/02/19 01:01:31;;;;;;;4.70;1.77;;;;;;;26.60;29.42;96130.47;5011765;28;20028;-32
2022/02/19 01:03:57;;;;;;;2.78;1.30;;;;;;;26.60;29.12;96145.41;5009480;28;20127;-32
2022/02/19 01:06:22;;;;;;;4.80;1.67;;;;;;;26.59;29.15;96143.72;5012346;28;20026;-32
2022/02/19 01:08:49;;;;;;;8.57;1.77;;;;;;;26.58;29.10;96153.38;5013796;28;20025;-30
2022/02/19 01:11:14;;;;;;;5.07;1.70;;;;;;;26.59;29.17;96149.78;5010605;28;20029;-35
2022/02/19 01:13:40;;;;;;;6.10;1.60;;;;;;;26.59;29.22;96154.22;5009370;28;20053;-33
2022/02/19 01:16:05;;;;;;;5.47;1.73;;;;;;;26.57;28.89;96156.97;5011659;28;20026;-29
2022/02/19 01:18:31;;;;;;;5.30;1.73;;;;;;;26.58;29.09;96163.06;5013413;28;20030;-30
2022/02/19 01:20:56;;;;;;;3.08;1.65;;;;;;;26.58;29.02;96179.66;5012328;28;20087;-32
2022/02/19 01:23:21;;;;;;;5.00;1.50;;;;;;;26.58;29.03;96182.28;5014919;28;20368;-32
2022/02/19 01:25:47;;;;;;;3.97;1.55;;;;;;;26.56;29.10;96176.31;5012630;28;20029;-31
2022/02/19 01:28:12;;;;;;;3.50;1.50;;;;;;;26.57;29.00;96180.59;5014879;28;20025;-29
2022/02/19 01:30:38;;;;;;;3.45;1.52;;;;;;;26.57;28.92;96177.97;5012152;28;20018;-31
2022/02/19 01:33:03;;;;;;;5.22;1.75;;;;;;;26.57;28.86;96185.00;5011552;28;20029;-32
2022/02/19 01:35:28;;;;;;;3.70;1.52;;;;;;;26.56;28.83;96185.97;5011670;28;20033;-30
2022/02/19 01:37:54;;;;;;;3.65;1.75;;;;;;;26.55;28.88;96190.34;5007730;28;20025;-30
2022/02/19 01:40:19;;;;;;;3.53;1.55;;;;;;;26.55;28.99;96187.72;5012686;28;20034;-33
2022/02/19 01:42:45;;;;;;;3.33;1.45;;;;;;;26.55;29.00;96203.50;5010472;28;20033;-31
2022/02/19 01:45:13;;;;;;;2.35;1.13;;;;;;;26.54;28.80;96193.94;5014849;28;20026;-31
2022/02/19 01:47:39;;;;;;;4.50;1.70;;;;;;;26.55;28.95;96200.03;5012073;28;20048;-32
2022/02/19 01:50:06;;;;;;;4.85;1.92;;;;;;;26.54;28.82;96203.63;5012075;28;20453;-30
2022/02/19 01:52:31;;;;;;;4.63;1.77;;;;;;;26.53;28.88;96202.78;5014151;28;20044;-30
2022/02/19 01:54:56;;;;;;;4.97;1.48;;;;;;;26.54;28.84;96196.56;4998172;28;20033;-28
2022/02/19 01:57:23;;;;;;;4.25;1.70;;;;;;;26.53;28.88;96204.53;4997669;28;20041;-30
2022/02/19 01:59:49;;;;;;;3.22;1.40;;;;;;;26.52;28.85;96205.50;5016466;28;20064;-30
2022/02/19 02:02:14;;;;;;;2.45;1.40;;;;;;;26.51;28.90;96194.16;5015203;28;20025;-32
2022/02/19 02:04:41;;;;;;;3.95;1.50;;;;;;;26.52;28.81;96208.13;5016439;28;20037;-32
2022/02/19 02:07:08;;;;;;;3.97;1.17;;;;;;;26.51;28.81;96204.66;5015213;28;20049;-30
2022/02/19 02:09:35;;;;;;;3.33;1.65;;;;;;;26.51;28.82;96204.66;5015073;28;20428;-32
2022/02/19 02:12:00;;;;;;;4.10;1.50;;;;;;;26.50;28.72;96213.47;5015467;28;20610;-31
2022/02/19 02:14:26;;;;;;;5.78;1.50;;;;;;;26.50;28.79;96217.91;4996401;28;20034;-28
2022/02/19 02:16:51;;;;;;;3.33;1.40;;;;;;;26.51;28.85;96209.94;5016040;28;20029;-32
2022/02/19 02:19:17;;;;;;;3.83;1.40;;;;;;;26.50;28.81;96221.34;5016043;28;20038;-31
2022/02/19 02:21:42;;;;;;;4.45;1.40;;;;;;;26.50;28.70;96223.16;5015544;28;20021;-35
2022/02/19 02:24:08;;;;;;;3.85;1.38;;;;;;;26.50;28.85;96228.41;5016406;28;20609;-30
2022/02/19 02:26:34;;;;;;;3.78;1.65;;;;;;;26.48;28.79;96233.75;5014617;28;20025;-29
2022/02/19 02:29:00;;;;;;;4.30;1.70;;;;;;;26.48;28.73;96229.31;5014303;28;20080;-32
2022/02/19 02:31:25;;;;;;;3.15;1.27;;;;;;;26.48;28.79;96236.38;5014286;28;20107;-30
2022/02/19 02:33:51;;;;;;;5.95;1.27;;;;;;;26.49;28.82;96232.81;5013941;28;20454;-31
2022/02/19 02:36:17;;;;;;;6.57;1.60;;;;;;;26.47;28.68;96239.97;5013337;28;20033;-31
2022/02/19 02:38:42;;;;;;;3.95;1.58;;;;;;;26.48;28.86;96241.66;5014291;28;20041;-30
2022/02/19 02:41:09;;;;;;;3.83;1.52;;;;;;;26.47;28.66;96246.03;5015088;28;20427;-29
2022/02/19 02:43:34;;;;;;;3.92;1.40;;;;;;;26.47;28.76;96245.22;5015067;28;20029;-31
2022/02/19 02:46:00;;;;;;;3.03;1.20;;;;;;;26.46;28.79;96259.28;5013162;28;20092;-31
2022/02/19 02:48:25;;;;;;;2.65;1.30;;;;;;;26.45;28.78;96252.34;5015715;28;20048;-29
2022/02/19 02:50:51;;;;;;;3.85;1.30;;;;;;;26.45;28.64;96270.72;5015660;28;20026;-31
2022/02/19 02:53:17;;;;;;;2.92;1.45;;;;;;;26.44;28.64;96267.28;5014401;28;20680;-30
2022/02/19 02:55:42;;;;;;;4.03;1.48;;;;;;;26.45;28.73;96273.34;5013835;28;20030;-30
2022/02/19 02:58:08;;;;;;;2.92;1.38;;;;;;;26.44;28.76;96277.78;5013736;28;20037;-30
2022/02/19 03:00:33;;;;;;;2.72;1.30;;;;;;;26.44;28.63;96283.03;5014384;28;20049;-33
2022/02/19 03:02:59;;;;;;;4.10;1.67;;;;;;;26.44;28.69;96271.69;5013104;28;20740;-30
2022/02/19 03:05:25;;;;;;;2.33;1.38;;;;;;;26.44;28.56;96293.56;5015950;28;20395;-30
2022/02/19 03:07:50;;;;;;;4.28;1.30;;;;;;;26.44;28.67;96297.97;5015099;28;20033;-31
2022/02/19 03:10:17;;;;;;;4.10;1.10;;;;;;;26.42;28.74;96286.69;5014626;28;20037;-29
2022/02/19 03:12:45;;;;;;;3.80;1.52;;;;;;;26.41;28.63;96292.88;5015147;28;20027;-32
2022/02/19 03:15:11;;;;;;;3.15;1.40;;;;;;;26.42;28.49;96302.44;5013141;28;20090;-31
2022/02/19 03:17:37;;;;;;;2.72;1.23;;;;;;;26.41;28.60;96295.50;5013435;28;20485;-32
2022/02/19 03:20:04;;;;;;;2.92;1.35;;;;;;;26.41;28.55;96304.25;5013259;28;20029;-31
2022/02/19 03:22:29;;;;;;;4.97;1.45;;;;;;;26.41;28.50;96308.66;5010667;28;21520;-31
2022/02/19 03:24:54;;;;;;;2.72;1.25;;;;;;;26.40;28.67;96322.72;5012415;28;20033;-30
2022/02/19 03:27:22;;;;;;;3.10;1.30;;;;;;;26.40;28.56;96317.47;5013691;28;20033;-34
2022/02/19 03:29:47;;;;;;;2.95;1.30;;;;;;;26.40;28.56;96320.09;5010020;28;20029;-33
2022/02/19 03:32:12;;;;;;;3.05;1.20;;;;;;;26.40;28.55;96325.34;5015192;28;20033;-32
2022/02/19 03:34:38;;;;;;;3.72;1.40;;;;;;;26.39;28.46;96326.31;5013483;28;20092;-31
2022/02/19 03:37:04;;;;;;;3.38;1.40;;;;;;;26.39;28.54;96335.00;5011685;28;20550;-34
2022/02/19 03:39:29;;;;;;;2.90;1.38;;;;;;;26.39;28.40;96342.88;5011265;28;20040;-30
2022/02/19 03:41:54;;;;;;;4.75;1.40;;;;;;;26.34;28.32;96337.94;5012673;28;20063;-29
2022/02/19 03:44:20;;;;;;;4.18;1.55;;;;;;;26.38;28.38;96343.84;5010615;28;20099;-32
2022/02/19 03:46:45;;;;;;;4.72;1.40;;;;;;;26.39;28.29;96342.06;5011498;28;20037;-33
2022/02/19 03:49:10;;;;;;;3.72;1.48;;;;;;;26.38;28.45;96350.91;5013268;28;20483;-31
2022/02/19 03:51:36;;;;;;;3.97;1.58;;;;;;;26.38;28.40;96350.91;5013293;28;21105;-34
2022/02/19 03:54:01;;;;;;;2.85;1.30;;;;;;;26.37;28.44;96354.44;5012140;28;20044;-31
2022/02/19 03:56:28;;;;;;;3.47;1.40;;;;;;;26.38;28.32;96377.16;5014411;28;20076;-29
2022/02/19 03:58:53;;;;;;;2.40;1.08;;;;;;;26.38;28.25;96361.41;5012013;28;20033;-30
2022/02/19 04:01:19;;;;;;;2.80;1.20;;;;;;;26.38;28.28;96361.41;5015171;28;20407;-31
2022/02/19 04:03:44;;;;;;;2.85;1.25;;;;;;;26.37;28.21;96364.94;5014141;28;20079;-31
2022/02/19 04:06:10;;;;;;;2.03;1.00;;;;;;;26.37;28.23;96385.97;5013902;28;20021;-31
2022/02/19 04:08:35;;;;;;;5.28;1.40;;;;;;;26.37;28.16;96393.84;5014433;28;20794;-30
2022/02/19 04:11:03;;;;;;;3.22;1.25;;;;;;;26.35;28.09;96404.44;5013319;28;20034;-30
2022/02/19 04:13:28;;;;;;;5.40;1.23;;;;;;;26.37;28.12;96406.97;5013308;28;20033;-30
2022/02/19 04:15:54;;;;;;;1.80;1.08;;;;;;;26.35;28.28;96413.19;5014267;28;20373;-33
2022/02/19 04:18:19;;;;;;;2.35;1.10;;;;;;;26.34;28.23;96408.88;5014751;28;20033;-30
2022/02/19 04:20:44;;;;;;;3.67;1.52;;;;;;;26.35;28.25;96410.56;5011927;28;20053;-33
2022/02/19 04:23:10;;;;;;;2.25;1.10;;;;;;;26.35;28.20;96415.81;5013441;28;20021;-33
2022/02/19 04:25:35;;;;;;;4.97;1.25;;;;;;;26.34;28.25;96419.38;5014090;28;20022;-29
2022/02/19 04:28:02;;;;;;;4.88;1.38;;;;;;;26.35;28.24;96425.47;5012531;28;20032;-32
2022/02/19 04:30:28;;;;;;;3.30;1.25;;;;;;;26.33;28.13;96417.69;5012634;28;20037;-30
2022/02/19 04:32:56;;;;;;;2.17;0.90;;;;;;;26.34;28.16;96429.03;5014543;28;20084;-29
2022/02/19 04:35:22;;;;;;;2.25;1.20;;;;;;;26.32;28.31;96418.59;5013745;28;20027;-31
2022/02/19 04:37:48;;;;;;;2.20;1.00;;;;;;;26.32;28.19;96420.41;5013972;28;20029;-32
2022/02/19 04:40:13;;;;;;;4.13;1.45;;;;;;;26.30;28.12;96423.13;5012789;28;20514;-30
2022/02/19 04:42:39;;;;;;;2.33;1.10;;;;;;;26.30;28.28;96431.00;5013367;28;20531;-31
2022/02/19 04:45:05;;;;;;;2.85;1.17;;;;;;;26.29;28.20;96426.69;5013235;28;20033;-31
2022/02/19 04:47:31;;;;;;;3.47;1.45;;;;;;;26.30;28.27;96432.78;5011741;28;20037;-31
2022/02/19 04:49:56;;;;;;;3.97;1.33;;;;;;;26.29;28.15;96431.97;5012665;28;20471;-30
2022/02/19 04:52:21;;;;;;;3.15;1.30;;;;;;;26.28;28.27;96429.41;5014382;28;20400;-31
2022/02/19 04:54:47;;;;;;;2.10;0.90;;;;;;;26.29;28.12;96441.59;5011888;28;20025;-31
2022/02/19 04:57:12;;;;;;;3.80;1.50;;;;;;;26.28;28.16;96446.00;5012756;28;20041;-30
2022/02/19 04:59:37;;;;;;;2.58;1.20;;;;;;;26.29;28.12;96442.47;5013779;28;20099;-29
2022/02/19 05:02:03;;;;;;;3.08;1.30;;;;;;;26.28;28.23;96450.44;5013212;28;20744;-35
2022/02/19 05:04:29;;;;;;;3.30;1.23;;;;;;;26.27;28.18;96462.72;5010012;28;20042;-29
2022/02/19 05:06:54;;;;;;;4.22;1.50;;;;;;;26.27;28.14;96460.09;5010063;28;20029;-30
2022/02/19 05:09:19;;;;;;;8.18;1.85;;;;;;;26.25;27.47;96461.94;5012616;28;20045;-32
2022/02/19 05:11:45;;;;;;;4.70;1.60;;;;;;;26.23;27.25;96463.78;5011824;28;20030;-31
2022/02/19 05:14:10;;;;;;;3.42;1.30;;;;;;;26.21;27.37;96474.38;5013990;28;20026;-29
2022/02/19 05:16:36;;;;;;;4.90;1.25;;;;;;;26.20;27.72;96479.75;5012849;28;20925;-32
2022/02/19 05:19:01;;;;;;;3.72;1.50;;;;;;;26.20;27.82;96483.22;5011150;28;20036;-30
2022/02/19 05:21:26;;;;;;;2.35;1.10;;;;;;;26.18;27.78;96490.34;5013200;28;20033;-28
2022/02/19 05:23:52;;;;;;;2.63;1.10;;;;;;;26.18;27.90;96498.22;5013079;28;20515;-29
2022/02/19 05:26:17;;;;;;;2.30;1.23;;;;;;;26.18;27.94;96507.88;5011908;28;20044;-29
2022/02/19 05:28:42;;;;;;;2.45;1.20;;;;;;;26.18;27.97;96510.50;5016625;28;20025;-32
2022/02/19 05:31:08;;;;;;;3.08;1.17;;;;;;;26.18;28.09;96519.25;5016169;28;20041;-32
2022/02/19 05:33:33;;;;;;;2.83;1.10;;;;;;;26.17;28.12;96512.31;5018078;28;20092;-31
2022/02/19 05:35:59;;;;;;;1.75;0.77;;;;;;;26.19;28.13;96514.81;5017453;28;20505;-31
2022/02/19 05:38:25;;;;;;;3.28;1.33;;;;;;;26.18;28.09;96507.88;5015436;28;20038;-30
2022/02/19 05:40:51;;;;;;;2.78;1.20;;;;;;;26.19;28.01;96509.56;5018099;28;20490;-30
2022/02/19 05:43:16;;;;;;;3.20;1.00;;;;;;;26.18;28.04;96515.75;5016659;28;20029;-29
2022/02/19 05:45:46;;;;;;;2.70;1.10;;;;;;;26.17;28.13;96517.56;5018547;28;20087;-32
2022/02/19 05:48:11;;;;;;;2.47;1.00;;;;;;;26.18;28.23;96528.88;5014719;28;20116;-32
2022/02/19 05:50:37;;;;;;;2.88;1.25;;;;;;;26.17;28.18;96535.09;5016400;28;20033;-31
2022/02/19 05:53:04;;;;;;;2.20;1.02;;;;;;;26.17;28.05;96535.09;5015040;28;20041;-31
2022/02/19 05:55:30;;;;;;;2.08;0.95;;;;;;;26.16;28.15;96543.91;4999858;28;20024;-31
2022/02/19 05:57:55;;;;;;;2.60;1.02;;;;;;;26.17;28.20;96550.84;5015269;28;20049;-31
2022/02/19 06:00:21;;;;;;;4.55;0.90;;;;;;;26.17;28.24;96550.84;5015167;28;20436;-32
2022/02/19 06:02:46;;;;;;;4.53;1.20;;;;;;;26.17;28.30;96558.72;5016704;28;20033;-32
2022/02/19 06:05:11;;;;;;;3.20;0.90;;;;;;;26.17;28.12;96556.09;5016256;28;20033;-30
2022/02/19 06:07:37;;;;;;;1.63;0.88;;;;;;;26.17;28.16;96561.34;5014485;28;20038;-31
2022/02/19 06:10:03;;;;;;;2.13;1.00;;;;;;;26.17;28.30;96558.72;5016695;28;20515;-30
2022/02/19 06:12:28;;;;;;;2.15;1.10;;;;;;;26.16;28.26;96565.75;5015027;28;20037;-30
2022/02/19 06:14:53;;;;;;;3.35;1.17;;;;;;;26.16;28.18;96571.00;5016064;28;20749;-29
2022/02/19 06:17:19;;;;;;;1.13;0.80;;;;;;;26.16;28.21;96570.16;5012871;28;20034;-31
2022/02/19 06:19:44;;;;;;;3.45;0.82;;;;;;;26.15;28.20;96571.94;5014768;28;20037;-29
2022/02/19 06:22:09;;;;;;;1.63;0.95;;;;;;;26.15;28.34;96576.34;5014083;28;20021;-33
2022/02/19 06:24:35;;;;;;;1.95;0.77;;;;;;;26.16;28.36;96588.56;5014011;28;20030;-31
2022/02/19 06:27:01;;;;;;;1.98;0.88;;;;;;;26.15;28.29;96584.22;5014050;28;20497;-31
2022/02/19 06:29:27;;;;;;;2.40;0.80;;;;;;;26.14;28.23;96593.88;5012562;28;20030;-33
2022/02/19 06:31:52;;;;;;;2.03;0.85;;;;;;;26.15;28.23;96597.34;4997510;28;20064;-32
2022/02/19 06:34:17;;;;;;;1.35;0.57;;;;;;;26.15;28.21;96607.84;5014808;28;20028;-31
2022/02/19 06:36:43;;;;;;;1.25;0.70;;;;;;;26.14;28.21;96620.16;5009551;28;20040;-29
2022/02/19 06:39:08;;;;;;;1.35;0.57;;;;;;;26.15;28.22;96613.09;5014712;28;20092;-31
2022/02/19 06:41:34;;;;;;;1.70;0.70;;;;;;;26.15;28.21;96624.47;5008980;28;20029;-30
2022/02/19 06:43:59;;;;;;;3.55;0.90;;;;;;;26.14;28.45;96627.16;5012581;28;20091;-36
2022/02/19 06:46:24;;;;;;;1.63;0.70;;;;;;;26.14;28.28;96629.81;5014082;28;20088;-31
2022/02/19 06:48:50;;;;;;;1.98;0.95;;;;;;;26.14;28.37;96641.16;4997646;28;20039;-31
2022/02/19 06:51:16;;;;;;;2.22;1.05;;;;;;;26.15;28.38;96634.13;5013532;28;20029;-31
2022/02/19 06:53:41;;;;;;;1.55;0.98;;;;;;;26.13;28.33;96636.84;4996192;28;20060;-36
2022/02/19 06:56:07;;;;;;;1.38;0.80;;;;;;;26.15;28.33;96655.13;5015317;28;20029;-32
2022/02/19 06:58:32;;;;;;;2.35;0.95;;;;;;;26.16;28.40;96662.09;5017020;28;20535;-31
2022/02/19 07:00:58;;;;;;;2.40;0.90;;;;;;;26.15;28.36;96660.38;5015657;28;20025;-31
2022/02/19 07:03:24;;;;;;;1.17;0.77;;;;;;;26.16;28.38;96667.34;4998858;28;20026;-31
2022/02/19 07:05:52;;;;;;;1.80;0.70;;;;;;;26.15;28.49;96660.38;5014238;28;20033;-32
2022/02/19 07:08:20;;;;;;;1.17;0.60;;;;;;;26.15;28.44;96668.25;5014546;28;20156;-31
2022/02/19 07:10:46;;;;;;;2.08;0.80;;;;;;;26.15;28.42;96676.13;5015844;28;20029;-31
2022/02/19 07:13:12;;;;;;;1.52;0.60;;;;;;;26.16;28.44;96677.84;5015275;28;20387;-33
2022/02/19 07:15:37;;;;;;;0.95;0.60;;;;;;;26.16;28.36;96688.34;5014347;28;20224;-32
2022/02/19 07:18:03;;;;;;;1.15;0.63;;;;;;;26.16;28.54;96690.97;5014317;28;20037;-31
2022/02/19 07:20:28;;;;;;;4.50;0.80;;;;;;;26.17;28.39;96697.91;4998089;28;20029;-31
2022/02/19 07:22:54;;;;;;;4.15;0.90;;;;;;;26.16;28.37;96698.84;4997106;28;20085;-31
2022/02/19 07:25:20;;;;;;;2.28;0.68;;;;;;;26.18;28.21;96715.38;5015428;28;20030;-30
2022/02/19 07:27:45;;;;;;;7.10;1.17;;;;;;;26.17;28.40;96711.06;5014884;28;20029;-33
2022/02/19 07:30:15;;;;;;;6.28;1.80;;;;;;;26.18;28.51;96707.47;5013187;28;20490;-31
2022/02/19 07:32:40;;;;;;;7.32;1.45;;;;;;;26.19;28.37;96711.78;5013384;28;20041;-31
2022/02/19 07:35:09;;;;;;;5.30;1.70;;;;;;;26.18;28.47;96712.75;5013428;28;20020;-33
2022/02/19 07:37:35;;;;;;;6.45;1.73;;;;;;;26.19;28.39;96717.06;5009547;28;20116;-32
2022/02/19 07:40:01;;;;;;;5.57;1.52;;;;;;;26.20;28.32;96721.41;5010936;28;20072;-34
2022/02/19 07:42:27;;;;;;;8.77;1.90;;;;;;;26.21;28.40;96728.34;5013276;28;20376;-31
2022/02/19 07:44:53;;;;;;;5.00;2.00;;;;;;;26.23;28.22;96729.09;5014635;28;20779;-32
2022/02/19 07:47:28;;;;;;;5.15;1.98;;;;;;;26.22;28.07;96732.66;5010655;28;20030;-31
2022/02/19 07:58:18;;;;;;;7.50;2.25;;;;;;;26.22;28.00;96744.00;5011787;28;20041;-30
2022/02/19 08:00:47;;;;;;;7.18;2.45;;;;;;;26.22;27.96;96753.66;5014690;28;20033;-31
2022/02/19 08:03:13;;;;;;;7.03;2.53;;;;;;;26.22;27.97;96757.16;5011261;28;20116;-30
2022/02/19 08:05:38;;;;;;;7.00;2.20;;;;;;;26.24;28.02;96759.69;5012635;28;20042;-32
2022/02/19 08:08:04;;;;;;;6.88;2.55;;;;;;;26.23;28.09;96769.34;5015408;28;20036;-32
2022/02/19 08:10:29;;;;;;;7.53;2.38;;;;;;;26.25;28.00;96771.88;5012125;28;20025;-34
2022/02/19 08:12:54;;;;;;;6.38;2.50;;;;;;;26.25;27.86;96771.03;5012129;28;20029;-30
2022/02/19 08:15:20;;;;;;;6.30;2.03;;;;;;;26.25;27.88;96771.88;5014756;28;20507;-30
2022/02/19 08:17:45;;;;;;;7.35;2.60;;;;;;;26.26;27.83;96773.59;5012572;28;20033;-30
2022/02/19 08:20:11;;;;;;;7.68;2.38;;;;;;;26.27;27.83;96772.66;5014156;28;20029;-34
2022/02/19 08:22:36;;;;;;;8.18;2.75;;;;;;;26.26;27.90;96776.22;5014043;28;20091;-30
2022/02/19 08:25:02;;;;;;;9.75;2.72;;;;;;;26.28;27.79;96776.97;5014213;28;20045;-30
2022/02/19 08:27:27;;;;;;;9.45;2.33;;;;;;;26.29;27.94;96772.59;5014792;28;20134;-29
2022/02/19 08:29:52;;;;;;;7.32;2.50;;;;;;;26.30;27.95;96779.53;5012393;28;20030;-30
2022/02/19 08:32:18;;;;;;;7.22;2.30;;;;;;;26.33;27.76;96785.47;5012557;28;20033;-33
2022/02/19 08:34:43;;;;;;;6.70;2.53;;;;;;;26.33;27.74;96785.47;5011287;28;20052;-30
2022/02/19 08:37:09;;;;;;;8.82;2.70;;;;;;;26.33;27.21;96782.84;5013520;28;20110;-29
2022/02/19 08:39:34;;;;;;;5.72;2.40;;;;;;;26.34;27.40;96784.53;5011862;28;20975;-30
2022/02/19 08:41:59;;;;;;;6.93;2.00;;;;;;;26.35;27.48;96783.59;5008990;28;20038;-32
2022/02/19 08:44:25;;;;;;;4.85;2.10;;;;;;;26.37;27.66;96786.16;5014640;28;20503;-34
2022/02/19 08:46:50;;;;;;;5.78;2.33;;;;;;;26.39;27.42;96786.06;5014673;28;20526;-30
2022/02/19 08:49:16;;;;;;;8.93;2.28;;;;;;;26.41;27.80;96776.31;5009749;28;20021;-30
2022/02/19 08:51:41;;;;;;;7.18;2.55;;;;;;;26.37;27.67;96770.38;5011693;28;20029;-32
2022/02/19 08:54:07;;;;;;;5.15;2.20;;;;;;;26.41;27.75;96787.66;5011930;28;20053;-30
2022/02/19 08:56:32;;;;;;;4.38;2.03;;;;;;;26.43;27.70;96790.22;5009531;28;20026;-29
2022/02/19 08:58:58;;;;;;;9.07;2.75;;;;;;;26.45;27.73;96793.59;5012600;28;20511;-33
2022/02/19 09:01:27;;;;;;;6.63;2.38;;;;;;;26.46;27.74;96797.91;5014215;28;20091;-32
2022/02/19 09:03:53;;;;;;;6.93;2.35;;;;;;;26.49;27.89;96795.13;5018327;28;20488;-29
2022/02/19 09:06:18;;;;;;;5.80;2.40;;;;;;;26.50;27.77;96802.06;5015358;28;20033;-30
2022/02/19 09:08:46;;;;;;;5.15;1.75;;;;;;;26.52;27.77;96807.25;5016208;28;20025;-30
2022/02/19 09:11:11;;;;;;;9.68;1.65;;;;;;;26.52;27.81;96813.34;5015753;28;20049;-31
2022/02/19 09:13:36;;;;;;;4.90;1.67;;;;;;;26.52;27.83;96802.84;5016223;28;20474;-34
2022/02/19 09:16:02;;;;;;;5.15;1.80;;;;;;;26.54;27.72;96795.69;5017268;28;20029;-31
2022/02/19 09:18:27;;;;;;;5.85;2.17;;;;;;;26.54;27.91;96803.59;5017733;28;20033;-29
2022/02/19 09:20:53;;;;;;;8.23;2.30;;;;;;;26.54;27.84;96808.84;5019079;28;20026;-32
2022/02/19 09:23:18;;;;;;;5.40;2.10;;;;;;;26.55;27.68;96815.78;5018279;28;20569;-30
2022/02/19 09:25:44;;;;;;;8.70;2.13;;;;;;;26.56;27.74;96820.13;5017284;28;20030;-31
2022/02/19 09:28:09;;;;;;;6.25;2.22;;;;;;;26.57;27.57;96824.44;5012897;28;20033;-30
2022/02/19 09:30:37;;;;;;;8.50;2.35;;;;;;;26.35;20.32;96817.75;5011165;28;20036;-28
2022/02/19 09:33:03;;;;;;;8.60;2.33;;;;;;;26.05;19.12;96842.09;5013977;28;20034;-29
2022/02/19 09:35:28;;;;;;;8.73;2.30;;;;;;;25.78;19.47;96836.53;5010068;28;20080;-28
2022/02/19 09:37:54;;;;;;;7.00;1.90;;;;;;;25.57;19.97;96837.59;5014963;28;20044;-29
2022/02/19 09:40:19;;;;;;;8.65;2.63;;;;;;;25.45;20.68;96832.94;5015760;28;20251;-34
2022/02/19 09:42:45;;;;;;;8.30;2.30;;;;;;;25.38;21.21;96839.41;5012558;28;20030;-29
2022/02/19 09:45:10;;;;;;;8.05;2.30;;;;;;;25.35;21.41;96847.44;5017491;28;20670;-32
2022/02/19 09:47:36;;;;;;;7.30;2.33;;;;;;;25.34;21.64;96837.84;5013588;28;20060;-29
2022/02/19 09:50:02;;;;;;;7.55;2.40;;;;;;;25.35;21.98;96848.28;5016929;28;20021;-30
2022/02/19 09:52:27;;;;;;;10.98;2.15;;;;;;;25.36;22.20;96843.88;5012498;28;20033;-31
2022/02/19 09:54:56;;;;;;;7.18;2.20;;;;;;;25.41;22.60;96855.00;5009931;28;20079;-31
2022/02/19 09:57:21;;;;;;;7.57;2.03;;;;;;;25.44;22.67;96857.47;5015430;28;20120;-30
2022/02/19 09:59:47;;;;;;;11.90;2.05;;;;;;;25.49;22.94;96859.84;5015667;28;22728;-30
2022/02/19 10:02:12;;;;;;;7.20;2.20;;;;;;;25.53;23.07;96859.63;5013438;28;20026;-31
2022/02/19 10:04:38;;;;;;;9.00;2.00;;;;;;;25.56;23.25;96859.47;5013303;28;20049;-29
2022/02/19 10:07:17;;;;;;;12.10;2.30;;;;;;;25.62;23.36;96862.75;4992157;28;20040;-28
2022/02/19 10:09:43;;;;;;;15.35;3.38;;;;;;;25.66;23.36;96859.03;5011153;28;20035;-32
2022/02/19 10:12:10;;;;;;;12.35;3.60;;;;;;;25.69;23.61;96853.59;5013987;28;20029;-30
2022/02/19 10:14:37;;;;;;;17.00;3.38;;;;;;;25.73;23.78;96849.91;5016651;28;20040;-30
2022/02/19 10:17:29;;;;;;;14.00;3.30;;;;;;;25.76;23.93;96855.00;5016058;28;20033;-29
2022/02/19 10:20:05;;;;;;;10.00;3.17;;;;;;;25.81;24.08;96852.13;5013110;28;20059;-29
2022/02/19 10:22:35;;;;;;;16.38;3.53;;;;;;;25.86;24.07;96857.13;5017360;28;20029;-31
2022/02/19 10:25:05;;;;;;;20.05;3.58;;;;;;;25.90;24.20;96850.78;5017268;28;20067;-31
2022/02/19 10:27:43;;;;;;;14.07;3.40;;;;;;;25.94;24.29;96857.59;5016971;28;20116;-29
2022/02/19 10:30:09;;;;;;;10.80;2.63;;;;;;;25.96;24.33;96855.72;5015865;28;20080;-30
2022/02/19 10:32:50;;;;;;;14.73;3.60;;;;;;;25.98;24.52;96859.13;5014844;28;21009;-30
2022/02/19 10:35:16;;;;;;;9.50;3.22;;;;;;;26.02;24.53;96865.91;5017750;28;20049;-30
2022/02/19 10:37:46;;;;;;;10.80;3.10;;;;;;;26.05;24.55;96857.03;5017349;28;20049;-30
2022/02/19 10:40:28;;;;;;;14.73;3.20;;;;;;;26.07;24.63;96858.63;5015854;28;20034;-29
2022/02/19 10:42:57;;;;;;;13.45;3.30;;;;;;;26.08;24.71;96855.06;5016692;28;20033;-31
2022/02/19 10:45:23;;;;;;;11.38;3.22;;;;;;;26.12;24.76;96855.75;4999061;28;20026;-32
2022/02/19 10:47:48;;;;;;;11.15;3.10;;;;;;;26.13;24.82;96846.97;5014945;28;20620;-31
2022/02/19 10:50:20;;;;;;;13.00;3.50;;;;;;;26.16;24.93;96856.44;4999090;28;20052;-31
2022/02/19 10:52:52;;;;;;;;;;;;;;;26.18;25.03;96854.56;5015088;28;20546;-31
2022/02/19 10:55:19;;;;;;;10.00;3.38;;;;;;;26.20;24.97;96855.34;5008813;28;19917;-32
2022/02/19 10:57:45;;;;;;;14.07;3.13;;;;;;;26.21;24.95;96854.41;5013828;28;20052;-32
2022/02/19 11:00:15;;;;;;;6.90;2.65;;;;;;;26.22;24.94;96853.47;5010368;28;20037;-32
2022/02/19 11:02:41;;;;;;;8.60;2.90;;;;;;;26.22;25.12;96851.72;5010966;28;20048;-30
2022/02/19 11:05:08;;;;;;;7.88;2.65;;;;;;;26.23;25.07;96852.53;4999810;28;20032;-30
2022/02/19 11:07:37;;;;;;;7.90;2.17;;;;;;;26.25;25.13;96852.47;5006199;28;20025;-29
2022/02/19 11:10:10;;;;;;;7.78;2.30;;;;;;;26.25;25.21;96845.44;4988869;28;20056;-30
2022/02/19 11:12:36;;;;;;;9.95;2.63;;;;;;;26.27;25.22;96848.84;5008971;28;20938;-32
2022/02/19 11:15:02;;;;;;;8.63;2.70;;;;;;;26.28;25.43;96833.94;5009317;28;20026;-28
2022/02/19 11:17:31;;;;;;;6.25;2.30;;;;;;;26.29;25.37;96841.75;5008263;28;20837;-30
2022/02/19 11:20:04;;;;;;;7.22;2.30;;;;;;;26.30;25.39;96838.19;5008263;28;20029;-31
2022/02/19 11:22:31;;;;;;;7.78;2.47;;;;;;;26.31;25.55;96839.88;5006895;28;20029;-32
2022/02/19 11:24:57;;;;;;;7.07;1.98;;;;;;;26.34;25.79;96842.34;5007319;28;20057;-33
2022/02/19 11:27:25;;;;;;;8.10;2.17;;;;;;;26.33;25.74;96835.41;5002186;28;20029;-30
2022/02/19 11:29:50;;;;;;;11.27;2.40;;;;;;;26.39;25.79;96836.00;4989452;28;20988;-31
2022/02/19 11:32:16;;;;;;;4.75;2.10;;;;;;;26.39;25.81;96843.88;4993971;28;20040;-29
2022/02/19 11:34:49;;;;;;;8.35;1.98;;;;;;;26.40;25.86;96838.53;5011928;28;20025;-37
2022/02/19 11:37:16;;;;;;;8.23;2.70;;;;;;;26.39;25.71;96830.72;5009480;28;20575;-29